createdAt,value
2018-12-29T00:00:08.172Z,57.24
2018-12-29T00:03:15.362Z,56.76
2018-12-29T00:06:21.056Z,57.24
2018-12-29T00:09:26.758Z,57.49
2018-12-29T00:12:32.383Z,57.29
2018-12-29T00:15:38.236Z,57.45
2018-12-29T00:18:43.830Z,57.48
2018-12-29T00:21:49.463Z,57.19
2018-12-29T00:24:55.042Z,56.96
2018-12-29T00:28:00.737Z,57.60
2018-12-29T00:31:06.333Z,57.13
2018-12-29T00:34:11.927Z,57.29
2018-12-29T00:37:17.565Z,57.41
2018-12-29T00:40:23.715Z,57.33
2018-12-29T00:43:29.479Z,57.74
2018-12-29T00:46:35.199Z,58.57
2018-12-29T00:49:40.867Z,58.24
2018-12-29T00:52:46.547Z,58.47
2018-12-29T00:55:52.170Z,58.04
2018-12-29T00:58:57.767Z,58.14
2018-12-29T01:02:03.406Z,57.88
2018-12-29T01:05:09.348Z,57.66
2018-12-29T01:08:15.014Z,57.86
2018-12-29T01:11:20.632Z,57.49
2018-12-29T01:14:26.301Z,57.82
2018-12-29T01:17:31.961Z,57.81
2018-12-29T01:20:37.650Z,57.58
2018-12-29T01:23:43.277Z,57.56
2018-12-29T01:26:48.870Z,57.51
2018-12-29T01:29:55.593Z,57.43
2018-12-29T01:33:01.179Z,57.58
2018-12-29T01:36:06.767Z,57.31
2018-12-29T01:39:12.382Z,57.46
2018-12-29T01:42:18.011Z,57.66
2018-12-29T01:45:23.591Z,58.04
2018-12-29T01:48:29.204Z,58.22
2018-12-29T01:51:34.843Z,58.35
2018-12-29T01:54:40.501Z,57.83
2018-12-29T01:57:46.220Z,57.67
2018-12-29T02:00:51.842Z,57.88
2018-12-29T02:03:57.481Z,58.13
2018-12-29T02:07:03.508Z,57.96
2018-12-29T02:10:09.330Z,58.16
2018-12-29T02:13:14.974Z,57.97
2018-12-29T02:16:20.600Z,57.85
2018-12-29T02:19:26.539Z,56.93
2018-12-29T02:22:32.147Z,58.11
2018-12-29T02:25:37.760Z,59.61
2018-12-29T02:28:43.365Z,61.40
2018-12-29T02:31:48.995Z,61.19
2018-12-29T02:34:54.706Z,62.24
2018-12-29T02:38:00.357Z,63.13
2018-12-29T02:41:05.965Z,62.97
2018-12-29T02:44:11.575Z,62.77
2018-12-29T02:47:17.162Z,62.50
2018-12-29T02:50:22.780Z,62.94
2018-12-29T02:53:28.359Z,62.34
2018-12-29T02:56:33.944Z,62.21
2018-12-29T02:59:39.562Z,63.04
2018-12-29T03:02:45.192Z,63.37
2018-12-29T03:05:50.835Z,63.44
2018-12-29T03:08:56.445Z,63.04
2018-12-29T03:12:02.312Z,63.09
2018-12-29T03:15:07.939Z,62.77
2018-12-29T03:18:13.578Z,62.75
2018-12-29T03:21:19.197Z,63.24
2018-12-29T03:24:24.848Z,62.88
2018-12-29T03:27:30.468Z,62.91
2018-12-29T03:30:36.057Z,63.68
2018-12-29T03:33:41.650Z,64.48
2018-12-29T03:36:47.260Z,64.17
2018-12-29T03:39:52.917Z,64.40
2018-12-29T03:42:58.527Z,63.46
2018-12-29T03:46:04.163Z,63.03
2018-12-29T03:49:09.781Z,62.51
2018-12-29T03:52:15.404Z,62.68
2018-12-29T03:55:20.992Z,62.57
2018-12-29T03:58:26.585Z,62.39
2018-12-29T04:01:32.195Z,62.38
2018-12-29T04:04:37.811Z,61.91
2018-12-29T04:07:43.415Z,61.67
2018-12-29T04:10:49.015Z,61.47
2018-12-29T04:13:54.606Z,61.01
2018-12-29T04:17:00.169Z,61.26
2018-12-29T04:20:06.009Z,61.44
2018-12-29T04:23:11.637Z,61.45
2018-12-29T04:26:17.301Z,61.49
2018-12-29T04:29:22.920Z,60.95
2018-12-29T04:32:28.590Z,60.31
2018-12-29T04:35:34.227Z,60.06
2018-12-29T04:38:39.843Z,60.33
2018-12-29T04:41:45.474Z,60.42
2018-12-29T04:44:51.053Z,60.56
2018-12-29T04:47:56.667Z,60.65
2018-12-29T04:51:02.253Z,61.30
2018-12-29T04:54:07.931Z,61.24
2018-12-29T04:57:13.577Z,61.31
2018-12-29T05:00:19.243Z,60.92
2018-12-29T05:03:24.870Z,61.32
2018-12-29T05:06:30.512Z,61.80
2018-12-29T05:09:36.118Z,61.07
2018-12-29T05:12:41.723Z,61.00
2018-12-29T05:15:47.295Z,60.67
2018-12-29T05:18:52.877Z,60.63
2018-12-29T05:21:58.499Z,60.41
2018-12-29T05:25:04.105Z,60.19
2018-12-29T05:28:09.727Z,59.79
2018-12-29T05:31:15.332Z,59.38
2018-12-29T05:34:21.005Z,58.51
2018-12-29T05:37:26.648Z,57.97
2018-12-29T05:40:32.256Z,58.29
2018-12-29T05:43:37.873Z,58.05
2018-12-29T05:46:43.471Z,57.86
2018-12-29T05:49:49.086Z,57.34
2018-12-29T05:52:54.734Z,57.18
2018-12-29T05:56:00.404Z,56.88
2018-12-29T05:59:06.020Z,57.07
2018-12-29T06:02:11.636Z,57.23
2018-12-29T06:05:17.234Z,56.86
2018-12-29T06:08:22.842Z,56.56
2018-12-29T06:11:28.443Z,56.62
2018-12-29T06:14:34.126Z,56.58
2018-12-29T06:17:39.773Z,56.95
2018-12-29T06:20:45.429Z,56.44
2018-12-29T06:23:51.050Z,56.15
2018-12-29T06:26:56.636Z,55.87
2018-12-29T06:30:02.255Z,55.97
2018-12-29T06:33:07.895Z,56.29
2018-12-29T06:36:13.484Z,56.28
2018-12-29T06:39:19.075Z,55.92
2018-12-29T06:42:24.706Z,56.46
2018-12-29T06:45:30.275Z,56.39
2018-12-29T06:48:35.894Z,55.67
2018-12-29T06:51:41.510Z,55.72
2018-12-29T06:54:47.188Z,55.79
2018-12-29T06:57:52.902Z,55.43
2018-12-29T07:00:58.534Z,55.83
2018-12-29T07:04:04.361Z,56.28
2018-12-29T07:07:09.990Z,55.92
2018-12-29T07:10:15.618Z,55.73
2018-12-29T07:13:21.207Z,55.89
2018-12-29T07:16:26.793Z,56.34
2018-12-29T07:19:32.420Z,56.22
2018-12-29T07:22:38.081Z,56.10
2018-12-29T07:25:43.708Z,56.15
2018-12-29T07:28:49.438Z,55.90
2018-12-29T07:31:55.042Z,56.32
2018-12-29T07:35:00.681Z,55.97
2018-12-29T07:38:06.262Z,56.29
2018-12-29T07:41:11.895Z,56.34
2018-12-29T07:44:17.525Z,56.33
2018-12-29T07:47:23.113Z,56.18
2018-12-29T07:50:28.732Z,56.07
2018-12-29T07:53:34.375Z,55.51
2018-12-29T07:56:40.878Z,55.52
2018-12-29T07:59:46.514Z,55.39
2018-12-29T08:02:52.106Z,55.57
2018-12-29T08:05:57.736Z,55.58
2018-12-29T08:09:03.856Z,55.51
2018-12-29T08:12:09.518Z,55.23
2018-12-29T08:15:15.222Z,55.40
2018-12-29T08:18:20.820Z,55.47
2018-12-29T08:21:26.445Z,55.25
2018-12-29T08:24:32.069Z,55.18
2018-12-29T08:27:37.702Z,55.14
2018-12-29T08:30:43.403Z,54.52
2018-12-29T08:33:49.057Z,54.12
2018-12-29T08:36:54.684Z,54.15
2018-12-29T08:40:00.301Z,53.78
2018-12-29T08:43:05.887Z,53.87
2018-12-29T08:46:11.518Z,54.12
2018-12-29T08:49:17.092Z,54.06
2018-12-29T08:52:22.732Z,54.29
2018-12-29T08:55:29.938Z,54.55
2018-12-29T08:58:35.720Z,54.13
2018-12-29T09:01:41.353Z,54.34
2018-12-29T09:04:47.082Z,53.97
2018-12-29T09:07:52.776Z,53.38
2018-12-29T09:10:58.389Z,52.98
2018-12-29T09:14:03.969Z,52.88
2018-12-29T09:17:12.275Z,52.07
2018-12-29T09:20:16.879Z,52.06
2018-12-29T09:23:22.466Z,51.93
2018-12-29T09:26:28.093Z,51.65
2018-12-29T09:29:33.711Z,51.77
2018-12-29T09:32:39.398Z,51.52
2018-12-29T09:35:45.054Z,51.25
2018-12-29T09:38:50.679Z,51.03
2018-12-29T09:41:56.341Z,51.16
2018-12-29T09:45:02.010Z,50.94
2018-12-29T09:48:07.690Z,51.05
2018-12-29T09:51:13.374Z,50.95
2018-12-29T09:54:19.025Z,50.89
2018-12-29T09:57:24.657Z,50.38
2018-12-29T10:00:30.331Z,50.54
2018-12-29T10:03:35.964Z,50.44
2018-12-29T10:06:41.593Z,50.09
2018-12-29T10:09:47.179Z,50.03
2018-12-29T10:12:52.759Z,50.28
2018-12-29T10:15:58.394Z,50.77
2018-12-29T10:19:04.086Z,49.96
2018-12-29T10:22:09.759Z,50.22
2018-12-29T10:25:15.479Z,50.06
2018-12-29T10:28:21.248Z,49.68
2018-12-29T10:31:26.923Z,49.74
2018-12-29T10:34:32.560Z,50.08
2018-12-29T10:37:38.190Z,50.01
2018-12-29T10:40:43.783Z,50.38
2018-12-29T10:43:49.505Z,50.27
2018-12-29T10:46:55.109Z,50.54
2018-12-29T10:50:00.697Z,50.40
2018-12-29T10:53:06.336Z,50.42
2018-12-29T10:56:11.976Z,50.23
2018-12-29T10:59:17.564Z,50.39
2018-12-29T11:02:23.180Z,49.82
2018-12-29T11:05:28.939Z,49.86
2018-12-29T11:08:34.609Z,49.71
2018-12-29T11:11:40.238Z,50.30
2018-12-29T11:14:46.853Z,50.41
2018-12-29T11:17:52.515Z,50.74
2018-12-29T11:20:58.128Z,50.45
2018-12-29T11:24:03.810Z,50.31
2018-12-29T11:27:09.486Z,50.10
2018-12-29T11:30:15.113Z,50.03
2018-12-29T11:33:20.796Z,50.03
2018-12-29T11:36:26.444Z,50.21
2018-12-29T11:39:32.081Z,50.30
2018-12-29T11:42:37.714Z,50.08
2018-12-29T11:45:43.339Z,50.06
2018-12-29T11:48:50.182Z,50.38
2018-12-29T11:51:57.131Z,49.86
2018-12-29T11:55:02.762Z,49.51
2018-12-29T11:58:08.400Z,49.56
2018-12-29T12:01:14.833Z,49.44
2018-12-29T12:04:20.498Z,49.53
2018-12-29T12:07:26.088Z,49.78
2018-12-29T12:10:31.765Z,49.55
2018-12-29T12:13:37.403Z,49.51
2018-12-29T12:16:43.010Z,49.21
2018-12-29T12:19:48.671Z,48.98
2018-12-29T12:22:54.305Z,48.90
2018-12-29T12:25:59.961Z,49.44
2018-12-29T12:29:05.731Z,49.40
2018-12-29T12:32:11.739Z,49.68
2018-12-29T12:35:17.363Z,49.49
2018-12-29T12:38:23.056Z,49.65
2018-12-29T12:41:28.793Z,49.56
2018-12-29T12:44:34.875Z,49.64
2018-12-29T12:47:40.552Z,50.04
2018-12-29T12:50:46.185Z,49.76
2018-12-29T12:53:51.848Z,49.82
2018-12-29T12:56:57.470Z,50.21
2018-12-29T13:00:03.437Z,49.85
2018-12-29T13:03:09.544Z,50.16
2018-12-29T13:06:15.173Z,49.98
2018-12-29T13:09:20.760Z,50.09
2018-12-29T13:12:26.356Z,49.90
2018-12-29T13:15:32.004Z,50.53
2018-12-29T13:18:37.630Z,50.27
2018-12-29T13:21:43.256Z,50.75
2018-12-29T13:24:48.887Z,50.93
2018-12-29T13:27:54.488Z,50.65
2018-12-29T13:31:00.091Z,50.99
2018-12-29T13:34:05.717Z,50.97
2018-12-29T13:37:11.400Z,51.01
2018-12-29T13:40:17.140Z,51.65
2018-12-29T13:43:22.772Z,51.51
2018-12-29T13:46:28.438Z,51.42
2018-12-29T13:49:34.192Z,51.36
2018-12-29T13:52:39.861Z,51.18
2018-12-29T13:55:45.490Z,50.63
2018-12-29T13:58:51.168Z,50.69
2018-12-29T14:01:56.779Z,51.21
2018-12-29T14:05:02.391Z,51.39
2018-12-29T14:08:08.129Z,51.17
2018-12-29T14:11:13.831Z,51.24
2018-12-29T14:14:19.546Z,51.35
2018-12-29T14:17:25.183Z,51.21
2018-12-29T14:20:30.881Z,51.63
2018-12-29T14:23:36.521Z,52.25
2018-12-29T14:26:42.156Z,51.86
2018-12-29T14:29:47.754Z,51.91
2018-12-29T14:32:53.345Z,51.81
2018-12-29T14:35:59.060Z,51.85
2018-12-29T14:39:05.991Z,51.91
2018-12-29T14:42:12.623Z,52.21
2018-12-29T14:45:18.240Z,51.81
2018-12-29T14:48:23.898Z,52.09
2018-12-29T14:51:30.565Z,52.20
2018-12-29T14:54:36.189Z,51.73
2018-12-29T14:57:41.895Z,51.62
2018-12-29T15:00:47.525Z,51.73
2018-12-29T15:03:53.180Z,51.68
2018-12-29T15:06:58.828Z,51.60
2018-12-29T15:10:05.335Z,51.82
2018-12-29T15:13:10.955Z,52.50
2018-12-29T15:16:16.588Z,52.73
2018-12-29T15:19:22.197Z,52.70
2018-12-29T15:22:27.817Z,52.61
2018-12-29T15:25:33.414Z,53.00
2018-12-29T15:28:39.051Z,53.29
2018-12-29T15:31:44.708Z,53.44
2018-12-29T15:34:50.366Z,53.46
2018-12-29T15:37:56.052Z,53.17
2018-12-29T15:41:01.655Z,53.36
2018-12-29T15:44:07.280Z,52.96
2018-12-29T15:47:13.010Z,52.92
2018-12-29T15:50:18.586Z,53.24
2018-12-29T15:53:24.654Z,53.07
2018-12-29T15:56:30.267Z,53.18
2018-12-29T15:59:35.858Z,52.93
2018-12-29T16:02:41.503Z,52.89
2018-12-29T16:05:47.158Z,52.85
2018-12-29T16:08:52.822Z,53.14
2018-12-29T16:12:00.623Z,52.66
2018-12-29T16:15:06.383Z,53.22
2018-12-29T16:18:12.054Z,53.00
2018-12-29T16:21:17.687Z,52.57
2018-12-29T16:24:23.329Z,53.08
2018-12-29T16:27:28.920Z,53.07
2018-12-29T16:30:34.513Z,52.52
2018-12-29T16:33:41.817Z,52.63
2018-12-29T16:36:47.474Z,52.69
2018-12-29T16:39:53.114Z,52.94
2018-12-29T16:42:59.118Z,52.82
2018-12-29T16:46:05.084Z,52.85
2018-12-29T16:49:10.719Z,53.23
2018-12-29T16:52:16.322Z,53.07
2018-12-29T16:55:21.927Z,53.03
2018-12-29T16:58:27.559Z,53.05
2018-12-29T17:01:33.352Z,53.13
2018-12-29T17:04:41.272Z,52.57
2018-12-29T17:07:46.877Z,52.37
2018-12-29T17:10:52.510Z,52.27
2018-12-29T17:13:58.111Z,52.61
2018-12-29T17:17:03.858Z,53.02
2018-12-29T17:20:09.909Z,53.32
2018-12-29T17:23:15.725Z,52.79
2018-12-29T17:26:21.363Z,53.44
2018-12-29T17:29:27.032Z,53.07
2018-12-29T17:32:32.695Z,53.25
2018-12-29T17:35:38.331Z,52.98
2018-12-29T17:38:44.028Z,53.18
2018-12-29T17:41:49.683Z,53.33
2018-12-29T17:44:55.324Z,52.88
2018-12-29T17:48:00.921Z,52.81
2018-12-29T17:51:06.813Z,52.83
2018-12-29T17:54:12.834Z,52.55
2018-12-29T17:57:18.438Z,52.42
2018-12-29T18:00:24.065Z,52.62
2018-12-29T18:03:29.714Z,51.90
2018-12-29T18:06:35.972Z,52.57
2018-12-29T18:09:41.953Z,52.17
2018-12-29T18:12:47.548Z,52.29
2018-12-29T18:15:53.154Z,52.84
2018-12-29T18:18:58.838Z,52.72
2018-12-29T18:22:04.565Z,53.08
2018-12-29T18:25:10.201Z,52.95
2018-12-29T18:28:16.297Z,53.33
2018-12-29T18:31:21.971Z,53.77
2018-12-29T18:34:27.657Z,53.28
2018-12-29T18:37:33.310Z,53.32
2018-12-29T18:40:39.138Z,53.20
2018-12-29T18:43:44.768Z,53.22
2018-12-29T18:46:50.446Z,53.57
2018-12-29T18:49:56.096Z,53.09
2018-12-29T18:53:02.045Z,53.07
2018-12-29T18:56:07.791Z,53.27
2018-12-29T18:59:13.351Z,53.28
2018-12-29T19:02:18.984Z,53.46
2018-12-29T19:05:24.633Z,53.09
2018-12-29T19:08:30.251Z,52.65
2018-12-29T19:11:35.843Z,52.49
2018-12-29T19:14:41.860Z,52.66
2018-12-29T19:17:47.459Z,52.61
2018-12-29T19:20:53.479Z,52.61
2018-12-29T19:23:59.493Z,52.71
2018-12-29T19:27:05.625Z,52.27
2018-12-29T19:30:11.261Z,52.46
2018-12-29T19:33:16.889Z,52.60
2018-12-29T19:36:22.798Z,52.42
2018-12-29T19:39:28.417Z,52.36
2018-12-29T19:42:34.034Z,52.59
2018-12-29T19:45:39.656Z,52.63
2018-12-29T19:48:46.412Z,52.41
2018-12-29T19:51:52.089Z,52.47
2018-12-29T19:54:58.240Z,52.51
2018-12-29T19:58:04.790Z,52.25
2018-12-29T20:01:11.789Z,53.95
2018-12-29T20:04:17.418Z,53.56
2018-12-29T20:07:23.129Z,53.54
2018-12-29T20:10:28.739Z,53.39
2018-12-29T20:13:35.333Z,53.80
2018-12-29T20:16:40.973Z,53.20
2018-12-29T20:19:46.586Z,53.37
2018-12-29T20:22:53.297Z,53.31
2018-12-29T20:25:58.941Z,53.22
2018-12-29T20:29:04.533Z,53.72
2018-12-29T20:32:10.145Z,53.62
2018-12-29T20:35:15.766Z,53.93
2018-12-29T20:38:21.424Z,53.56
2018-12-29T20:41:27.067Z,53.55
2018-12-29T20:44:32.705Z,52.79
2018-12-29T20:47:38.757Z,53.11
2018-12-29T20:50:44.425Z,53.25
2018-12-29T20:53:50.175Z,53.48
2018-12-29T20:56:55.965Z,53.10
2018-12-29T21:00:01.611Z,53.47
2018-12-29T21:03:08.737Z,52.76
2018-12-29T21:06:14.323Z,52.88
2018-12-29T21:09:19.921Z,52.53
2018-12-29T21:12:25.577Z,52.00
2018-12-29T21:15:31.181Z,51.91
2018-12-29T21:18:36.843Z,52.53
2018-12-29T21:21:42.840Z,52.56
2018-12-29T21:24:48.536Z,52.80
2018-12-29T21:27:54.226Z,52.24
2018-12-29T21:30:59.852Z,52.21
2018-12-29T21:34:05.517Z,52.69
2018-12-29T21:37:11.127Z,53.45
2018-12-29T21:40:16.759Z,52.95
2018-12-29T21:43:22.479Z,52.82
2018-12-29T21:46:28.136Z,53.08
2018-12-29T21:49:34.740Z,53.38
2018-12-29T21:52:40.422Z,53.21
2018-12-29T21:55:46.310Z,53.13
2018-12-29T21:58:51.948Z,53.95
2018-12-29T22:01:57.587Z,53.54
2018-12-29T22:05:03.330Z,53.55
2018-12-29T22:08:09.028Z,53.46
2018-12-29T22:11:14.647Z,54.00
2018-12-29T22:14:20.301Z,54.25
2018-12-29T22:17:26.157Z,53.98
2018-12-29T22:20:33.449Z,54.59
2018-12-29T22:23:39.295Z,53.97
2018-12-29T22:26:44.935Z,53.91
2018-12-29T22:29:50.905Z,53.72
2018-12-29T22:32:56.553Z,54.22
2018-12-29T22:36:02.155Z,53.56
2018-12-29T22:39:08.313Z,53.07
2018-12-29T22:42:13.922Z,53.07
2018-12-29T22:45:19.591Z,52.81
2018-12-29T22:48:25.259Z,53.02
2018-12-29T22:51:30.889Z,52.69
2018-12-29T22:54:36.564Z,53.12
2018-12-29T22:57:42.273Z,53.31
2018-12-29T23:00:49.710Z,54.11
2018-12-29T23:03:56.323Z,53.89
2018-12-29T23:07:01.915Z,53.95
2018-12-29T23:10:07.557Z,53.35
2018-12-29T23:13:13.192Z,53.87
2018-12-29T23:16:18.820Z,54.22
2018-12-29T23:19:24.735Z,54.00
2018-12-29T23:22:30.326Z,53.78
2018-12-29T23:25:35.959Z,53.89
2018-12-29T23:28:41.549Z,53.92
2018-12-29T23:31:47.160Z,53.47
2018-12-29T23:34:52.785Z,53.98
2018-12-29T23:37:58.396Z,54.17
2018-12-29T23:41:04.020Z,53.53
2018-12-29T23:44:09.666Z,53.36
2018-12-29T23:47:15.348Z,53.15
2018-12-29T23:50:20.953Z,52.85
2018-12-29T23:53:27.042Z,53.26
2018-12-29T23:56:33.085Z,53.37
2018-12-29T23:59:38.704Z,53.72
